Terminal Aerodrome Forecast
Issued by NWS

Home | Current Version | Previous Version | Text Only | Print | Product List | Glossary On
Versions: 1 2 3 4 5 6 7 8 9 10 11 12
386
FTUS46 KSEW 031120
TAFPAE
TAF
KPAE 031120Z 0312/0412 36006KT P6SM SCT130
     FM031800 23007KT P6SM SCT130 BKN250
     FM040000 33008KT P6SM VCSH BKN050 OVC110
     FM040600 36006KT P6SM VCSH BKN040 OVC080=

USA.gov is the U.S. government's official web portal to all federal, state and local government web resources and services.